createdAt,value
2024-04-09T00:01:23.444Z,16
2024-04-09T00:06:23.432Z,12
2024-04-09T00:11:23.448Z,14
2024-04-09T00:16:23.450Z,15
2024-04-09T00:21:23.438Z,16
2024-04-09T00:26:23.455Z,14
2024-04-09T00:31:23.442Z,15
2024-04-09T00:36:23.458Z,15
2024-04-09T00:41:23.460Z,14
2024-04-09T00:46:23.462Z,15
2024-04-09T00:51:23.465Z,14
2024-04-09T00:56:23.452Z,16
2024-04-09T01:01:23.468Z,15
2024-04-09T01:06:23.455Z,14
2024-04-09T01:11:23.472Z,14
2024-04-09T01:16:23.473Z,14
2024-04-09T01:21:23.524Z,16
2024-04-09T01:26:23.478Z,15
2024-04-09T01:31:23.465Z,16
2024-04-09T01:36:23.481Z,14
2024-04-09T01:41:23.469Z,15
2024-04-09T01:46:23.485Z,15
2024-04-09T01:51:23.487Z,17
2024-04-09T01:56:23.475Z,15
2024-04-09T02:01:23.491Z,17
2024-04-09T02:06:23.479Z,14
2024-04-09T02:11:23.495Z,12
2024-04-09T02:16:23.496Z,17
2024-04-09T02:21:23.498Z,17
2024-04-09T02:26:23.501Z,16
2024-04-09T02:31:23.488Z,17
2024-04-09T02:36:23.504Z,12
2024-04-09T02:41:23.492Z,17
2024-04-09T02:46:23.508Z,17
2024-04-09T02:51:23.510Z,12
2024-04-09T02:56:23.497Z,14
2024-04-09T03:01:23.514Z,14
2024-04-09T03:06:23.501Z,16
2024-04-09T03:11:23.517Z,14
2024-04-09T03:16:23.519Z,16
2024-04-09T03:21:23.521Z,12
2024-04-09T03:26:23.547Z,17
2024-04-09T03:31:23.510Z,14
2024-04-09T03:36:23.527Z,16
2024-04-09T03:41:23.514Z,17
2024-04-09T03:46:23.530Z,16
2024-04-09T03:51:23.532Z,16
2024-04-09T03:56:23.534Z,13
2024-04-09T04:01:23.536Z,15
2024-04-09T04:06:23.523Z,14
2024-04-09T04:11:23.539Z,13
2024-04-09T04:16:23.526Z,11
2024-04-09T04:21:23.542Z,15
2024-04-09T04:26:23.544Z,17
2024-04-09T04:31:23.532Z,15
2024-04-09T04:36:23.548Z,14
2024-04-09T04:41:23.535Z,15
2024-04-09T04:46:23.551Z,17
2024-04-09T04:51:23.553Z,15
2024-04-09T04:56:23.555Z,15
2024-04-09T05:01:23.557Z,17
2024-04-09T05:06:23.544Z,20
2024-04-09T05:11:23.560Z,20
2024-04-09T05:16:23.547Z,18
2024-04-09T05:21:23.563Z,18
2024-04-09T05:26:23.565Z,24
2024-04-09T05:31:23.591Z,17
2024-04-09T05:36:23.569Z,23
2024-04-09T05:41:23.556Z,23
2024-04-09T05:46:23.572Z,21
2024-04-09T05:51:23.573Z,23
2024-04-09T05:56:23.575Z,18
2024-04-09T06:01:23.578Z,21
2024-04-09T06:06:23.565Z,25
2024-04-09T06:11:23.631Z,22
2024-04-09T06:16:23.568Z,19
2024-04-09T06:21:23.584Z,20
2024-04-09T06:26:23.586Z,21
2024-04-09T06:31:23.589Z,21
2024-04-09T06:36:23.591Z,18
2024-04-09T06:41:23.578Z,18
2024-04-09T06:46:23.594Z,18
2024-04-09T06:51:23.582Z,24
2024-04-09T06:56:23.598Z,25
2024-04-09T07:01:23.600Z,31
2024-04-09T07:06:23.588Z,20
2024-04-09T07:11:23.605Z,19
2024-04-09T07:16:23.592Z,22
2024-04-09T07:21:23.608Z,23
2024-04-09T07:26:23.611Z,22
2024-04-09T07:31:23.613Z,16
2024-04-09T07:36:23.615Z,23
2024-04-09T07:41:23.603Z,22
2024-04-09T07:46:23.685Z,19
2024-04-09T07:51:23.607Z,20
2024-04-09T07:56:23.624Z,24
2024-04-09T08:01:23.626Z,19
2024-04-09T08:06:23.614Z,24
2024-04-09T08:11:23.631Z,22
2024-04-09T08:16:23.618Z,22
2024-04-09T08:21:23.635Z,21
2024-04-09T08:26:23.623Z,27
2024-04-09T08:31:23.640Z,27
2024-04-09T08:36:23.642Z,25
2024-04-09T08:41:23.630Z,19
2024-04-09T08:46:23.647Z,24
2024-04-09T08:51:23.634Z,24
2024-04-09T08:56:23.651Z,21
2024-04-09T09:01:23.653Z,22
2024-04-09T09:06:23.655Z,26
2024-04-09T09:11:23.658Z,27
2024-04-09T09:16:23.645Z,22
2024-04-09T09:21:23.661Z,25
2024-04-09T09:26:23.649Z,26
2024-04-09T09:31:23.666Z,23
2024-04-09T09:36:23.668Z,24
2024-04-09T09:41:23.656Z,24
2024-04-09T09:46:23.673Z,28
2024-04-09T09:51:23.660Z,27
2024-04-09T09:56:23.676Z,27
2024-04-09T10:01:23.678Z,26
2024-04-09T10:06:23.680Z,30
2024-04-09T10:11:23.746Z,31
2024-04-09T10:16:23.669Z,29
2024-04-09T10:21:23.688Z,27
2024-04-09T10:26:23.673Z,30
2024-04-09T10:31:23.689Z,31
2024-04-09T10:36:23.690Z,26
2024-04-09T10:41:23.692Z,32
2024-04-09T10:46:23.694Z,28
2024-04-09T10:51:23.681Z,31
2024-04-09T10:56:23.697Z,36
2024-04-09T11:01:23.684Z,37
2024-04-09T11:06:23.700Z,35
2024-04-09T11:11:23.702Z,30
2024-04-09T11:16:23.689Z,36
2024-04-09T11:21:23.705Z,34
2024-04-09T11:26:23.692Z,33
2024-04-09T11:31:23.708Z,40
2024-04-09T11:36:23.710Z,41
2024-04-09T11:41:23.712Z,35
2024-04-09T11:46:23.714Z,34
2024-04-09T11:51:23.701Z,35
2024-04-09T11:56:23.717Z,32
2024-04-09T12:01:23.704Z,29
2024-04-09T12:06:23.784Z,31
2024-04-09T12:11:23.722Z,36
2024-04-09T12:16:23.724Z,31
2024-04-09T12:21:23.726Z,32
2024-04-09T12:26:23.713Z,28
2024-04-09T12:31:23.729Z,29
2024-04-09T12:36:23.716Z,27
2024-04-09T12:41:23.732Z,30
2024-04-09T12:46:23.733Z,23
2024-04-09T12:51:23.721Z,26
2024-04-09T12:56:23.737Z,26
2024-04-09T13:01:23.724Z,33
2024-04-09T13:06:23.739Z,29
2024-04-09T13:11:23.741Z,34
2024-04-09T13:16:23.742Z,25
2024-04-09T13:21:23.744Z,24
2024-04-09T13:26:23.731Z,31
2024-04-09T13:31:23.747Z,30
2024-04-09T13:36:23.734Z,27
2024-04-09T13:41:23.749Z,27
2024-04-09T13:46:23.751Z,33
2024-04-09T13:51:28.618Z,27
2024-04-09T13:56:23.754Z,34
2024-04-09T14:01:23.741Z,25
2024-04-09T14:06:23.756Z,38
2024-04-09T14:11:23.758Z,31
2024-04-09T14:16:23.759Z,29
2024-04-09T14:21:23.761Z,26
2024-04-09T14:26:23.748Z,36
2024-04-09T14:31:23.829Z,32
2024-04-09T14:36:23.750Z,37
2024-04-09T14:46:23.767Z,32
2024-04-09T14:51:26.377Z,29
2024-04-09T14:56:23.771Z,28
2024-04-09T15:01:23.757Z,30
2024-04-09T15:06:23.773Z,26
2024-04-09T15:11:23.760Z,33
2024-04-09T15:16:23.775Z,34
2024-04-09T15:21:23.777Z,31
2024-04-09T15:26:23.764Z,37
2024-04-09T15:31:23.780Z,27
2024-04-09T15:36:23.767Z,31
2024-04-09T15:41:23.782Z,28
2024-04-09T15:46:23.783Z,30
2024-04-09T15:51:23.785Z,30
2024-04-09T15:56:23.786Z,27
2024-04-09T16:01:23.773Z,32
2024-04-09T16:06:23.788Z,32
2024-04-09T16:11:23.775Z,28
2024-04-09T16:16:23.791Z,31
2024-04-09T16:21:23.792Z,27
2024-04-09T16:26:23.779Z,25
2024-04-09T16:31:23.795Z,21
2024-04-09T16:36:23.782Z,17
2024-04-09T16:41:23.797Z,20
2024-04-09T16:46:23.798Z,23
2024-04-09T16:51:23.799Z,24
2024-04-09T16:56:23.849Z,22
2024-04-09T17:01:23.788Z,26
2024-04-09T17:06:23.804Z,21
2024-04-09T17:11:23.790Z,20
2024-04-09T17:16:23.806Z,19
2024-04-09T17:21:23.807Z,22
2024-04-09T17:26:23.808Z,27
2024-04-09T17:31:23.810Z,24
2024-04-09T17:36:23.796Z,24
2024-04-09T17:41:23.812Z,22
2024-04-09T17:46:23.799Z,22
2024-04-09T17:51:23.814Z,23
2024-04-09T17:56:23.815Z,22
2024-04-09T18:01:23.803Z,24
2024-04-09T18:06:23.818Z,18
2024-04-09T18:11:23.819Z,16
2024-04-09T18:16:23.820Z,24
2024-04-09T18:21:23.807Z,22
2024-04-09T18:26:23.823Z,20
2024-04-09T18:31:23.824Z,27
2024-04-09T18:36:23.811Z,20
2024-04-09T18:41:23.827Z,20
2024-04-09T18:46:23.813Z,18
2024-04-09T18:51:23.829Z,18
2024-04-09T18:56:23.830Z,22
2024-04-09T19:01:23.831Z,23
2024-04-09T19:06:23.833Z,21
2024-04-09T19:11:23.820Z,16
2024-04-09T19:16:23.835Z,21
2024-04-09T19:21:23.822Z,21
2024-04-09T19:26:23.902Z,20
2024-04-09T19:31:23.839Z,21
2024-04-09T19:36:23.840Z,21
2024-04-09T19:41:23.842Z,18
2024-04-09T19:46:23.828Z,19
2024-04-09T19:51:23.844Z,17
2024-04-09T19:56:23.831Z,17
2024-04-09T20:01:23.846Z,17
2024-04-09T20:06:23.847Z,23
2024-04-09T20:11:23.834Z,22
2024-04-09T20:16:23.850Z,22
2024-04-09T20:21:23.837Z,20
2024-04-09T20:26:23.852Z,21
2024-04-09T20:31:23.853Z,23
2024-04-09T20:36:23.854Z,18
2024-04-09T20:41:23.880Z,16
2024-04-09T20:46:23.843Z,16
2024-04-09T20:51:23.858Z,22
2024-04-09T20:56:23.845Z,17
2024-04-09T21:01:23.860Z,17
2024-04-09T21:06:23.861Z,16
2024-04-09T21:11:23.863Z,20
2024-04-09T21:16:23.864Z,19
2024-04-09T21:21:23.851Z,15
2024-04-09T21:26:23.866Z,19
2024-04-09T21:31:23.853Z,15
2024-04-09T21:36:23.869Z,10
2024-04-09T21:41:23.870Z,13
2024-04-09T21:46:23.857Z,15
2024-04-09T21:51:23.872Z,13
2024-04-09T21:56:23.859Z,11
2024-04-09T22:01:23.874Z,18
2024-04-09T22:06:23.875Z,14
2024-04-09T22:11:23.877Z,14
2024-04-09T22:16:23.902Z,11
2024-04-09T22:21:23.865Z,14
2024-04-09T22:26:23.881Z,16
2024-04-09T22:31:23.867Z,14
2024-04-09T22:36:23.882Z,16
2024-04-09T22:41:23.884Z,15
2024-04-09T22:46:23.885Z,15
2024-04-09T22:51:23.886Z,16
2024-04-09T22:56:23.873Z,19
2024-04-09T23:01:23.888Z,17
2024-04-09T23:06:23.875Z,15
2024-04-09T23:11:23.891Z,13
2024-04-09T23:16:23.892Z,15
2024-04-09T23:21:23.879Z,13
2024-04-09T23:26:23.895Z,11
2024-04-09T23:31:23.881Z,9
2024-04-09T23:36:23.896Z,9
2024-04-09T23:41:23.884Z,15
2024-04-09T23:46:23.899Z,22
2024-04-09T23:51:23.900Z,16
2024-04-09T23:56:23.887Z,18
